createdAt,value
2022-11-29T00:00:46.970Z,1.00
2022-11-29T00:03:14.368Z,0.90
2022-11-29T00:05:41.051Z,0.90
2022-11-29T00:08:07.635Z,1.03
2022-11-29T00:10:37.228Z,0.90
2022-11-29T00:13:04.008Z,1.20
2022-11-29T00:15:30.658Z,1.10
2022-11-29T00:17:57.309Z,0.80
2022-11-29T00:20:23.889Z,1.30
2022-11-29T00:22:50.488Z,1.17
2022-11-29T00:25:17.076Z,1.00
2022-11-29T00:27:43.659Z,0.97
2022-11-29T00:30:10.492Z,1.20
2022-11-29T00:32:37.120Z,1.10
2022-11-29T00:35:09.325Z,1.27
2022-11-29T00:37:36.417Z,1.10
2022-11-29T00:40:03.958Z,1.10
2022-11-29T00:42:30.609Z,1.20
2022-11-29T00:44:57.175Z,1.10
2022-11-29T00:47:23.843Z,1.30
2022-11-29T00:49:50.425Z,1.00
2022-11-29T00:52:17.011Z,1.20
2022-11-29T00:54:43.969Z,0.97
2022-11-29T00:57:10.775Z,1.00
2022-11-29T00:59:37.357Z,1.00
2022-11-29T01:02:03.993Z,1.03
2022-11-29T01:04:30.593Z,0.90
2022-11-29T01:06:57.176Z,1.20
2022-11-29T01:09:23.780Z,1.10
2022-11-29T01:11:50.641Z,1.00
2022-11-29T01:14:17.243Z,1.00
2022-11-29T01:16:43.864Z,1.20
2022-11-29T01:19:10.756Z,1.20
2022-11-29T01:21:37.525Z,1.03
2022-11-29T01:24:04.257Z,1.30
2022-11-29T01:26:31.157Z,1.50
2022-11-29T01:28:57.841Z,1.20
2022-11-29T01:31:27.287Z,1.10
2022-11-29T01:33:55.260Z,1.00
2022-11-29T01:36:21.945Z,1.00
2022-11-29T01:38:48.858Z,1.10
2022-11-29T01:41:21.053Z,1.03
2022-11-29T01:44:07.052Z,1.20
2022-11-29T01:46:35.652Z,1.20
2022-11-29T01:49:07.230Z,1.20
2022-11-29T01:51:33.858Z,1.17
2022-11-29T01:54:00.444Z,1.03
2022-11-29T01:56:28.360Z,1.10
2022-11-29T01:58:55.033Z,1.17
2022-11-29T02:01:21.653Z,1.20
2022-11-29T02:03:48.271Z,1.23
2022-11-29T02:06:14.928Z,1.20
2022-11-29T02:08:42.283Z,1.33
2022-11-29T02:11:27.661Z,1.20
2022-11-29T02:14:02.149Z,1.20
2022-11-29T02:16:56.398Z,1.10
2022-11-29T02:19:57.416Z,1.00
2022-11-29T02:22:43.155Z,1.30
2022-11-29T02:25:32.326Z,1.30
2022-11-29T02:28:24.966Z,1.10
2022-11-29T02:31:08.016Z,1.00
2022-11-29T02:33:46.653Z,1.23
2022-11-29T02:36:40.264Z,1.20
2022-11-29T02:39:36.685Z,1.20
2022-11-29T02:42:22.157Z,1.30
2022-11-29T02:45:10.636Z,1.23
2022-11-29T02:47:50.439Z,1.20
2022-11-29T02:50:32.044Z,1.20
2022-11-29T02:53:01.599Z,1.30
2022-11-29T02:55:59.471Z,1.30
2022-11-29T02:58:45.437Z,1.10
2022-11-29T03:01:24.743Z,1.10
2022-11-29T03:04:06.683Z,1.00
2022-11-29T03:07:08.290Z,1.23
2022-11-29T03:09:45.382Z,1.20
2022-11-29T03:12:21.163Z,1.40
2022-11-29T03:14:54.548Z,1.10
2022-11-29T03:17:43.268Z,1.17
2022-11-29T03:20:35.714Z,1.13
2022-11-29T03:23:17.965Z,1.17
2022-11-29T03:26:07.767Z,1.23
2022-11-29T03:28:38.790Z,1.20
2022-11-29T03:31:12.935Z,1.30
2022-11-29T03:34:18.199Z,1.10
2022-11-29T03:36:59.477Z,1.10
2022-11-29T03:39:38.137Z,1.40
2022-11-29T03:42:07.887Z,1.27
2022-11-29T03:44:39.459Z,1.30
2022-11-29T03:47:17.166Z,1.23
2022-11-29T03:49:52.466Z,1.40
2022-11-29T03:52:33.015Z,1.10
2022-11-29T03:55:08.685Z,1.30
2022-11-29T03:57:42.143Z,1.20
2022-11-29T04:00:12.968Z,1.40
2022-11-29T04:03:02.897Z,1.30
2022-11-29T04:05:51.529Z,1.40
2022-11-29T04:08:30.450Z,1.30
2022-11-29T04:11:15.014Z,1.17
2022-11-29T04:14:20.805Z,1.43
2022-11-29T04:17:24.653Z,1.30
2022-11-29T04:20:28.041Z,1.33
2022-11-29T04:23:13.418Z,1.20
2022-11-29T04:25:44.216Z,1.50
2022-11-29T04:28:19.086Z,1.20
2022-11-29T04:31:04.325Z,1.20
2022-11-29T04:33:43.422Z,1.33
2022-11-29T04:36:16.202Z,1.40
2022-11-29T04:38:46.190Z,1.30
2022-11-29T04:41:23.740Z,1.30
2022-11-29T04:43:59.217Z,1.10
2022-11-29T04:46:40.392Z,1.30
2022-11-29T04:49:17.815Z,1.40
2022-11-29T04:52:07.174Z,1.30
2022-11-29T04:54:52.002Z,1.37
2022-11-29T04:57:44.412Z,1.40
2022-11-29T05:00:19.763Z,1.50
2022-11-29T05:02:56.820Z,1.50
2022-11-29T05:05:40.473Z,1.30
2022-11-29T05:08:19.680Z,1.40
2022-11-29T05:11:06.145Z,1.37
2022-11-29T05:13:42.432Z,1.47
2022-11-29T05:16:15.820Z,1.37
2022-11-29T05:18:49.478Z,1.33
2022-11-29T05:21:28.876Z,1.37
2022-11-29T05:24:15.009Z,1.50
2022-11-29T05:26:50.247Z,1.40
2022-11-29T05:29:35.178Z,1.30
2022-11-29T05:32:13.946Z,1.60
2022-11-29T05:34:50.638Z,1.47
2022-11-29T05:37:38.069Z,1.30
2022-11-29T05:40:13.637Z,1.13
2022-11-29T05:43:02.304Z,1.40
2022-11-29T05:45:30.608Z,1.30
2022-11-29T05:48:25.684Z,1.50
2022-11-29T05:51:20.909Z,1.40
2022-11-29T05:53:51.460Z,1.40
2022-11-29T05:56:45.734Z,1.60
2022-11-29T05:59:23.458Z,1.43
2022-11-29T06:02:25.469Z,1.40
2022-11-29T06:05:10.044Z,1.40
2022-11-29T06:07:44.808Z,1.70
2022-11-29T06:10:39.848Z,1.43
2022-11-29T06:13:29.709Z,1.40
2022-11-29T06:16:01.467Z,1.43
2022-11-29T06:18:53.149Z,1.40
2022-11-29T06:21:40.074Z,1.40
2022-11-29T06:24:24.833Z,1.60
2022-11-29T06:27:10.956Z,1.30
2022-11-29T06:29:37.480Z,1.40
2022-11-29T06:32:19.631Z,1.73
2022-11-29T06:35:12.415Z,1.53
2022-11-29T06:37:40.626Z,1.67
2022-11-29T06:40:11.092Z,1.50
2022-11-29T06:42:37.792Z,1.47
2022-11-29T06:45:05.300Z,1.60
2022-11-29T06:47:37.472Z,1.70
2022-11-29T06:50:30.674Z,1.60
2022-11-29T06:53:06.499Z,1.40
2022-11-29T06:55:56.575Z,1.53
2022-11-29T06:58:48.915Z,1.50
2022-11-29T07:01:53.136Z,1.70
2022-11-29T07:04:53.433Z,1.80
2022-11-29T07:07:21.438Z,1.40
2022-11-29T07:09:49.577Z,1.50
2022-11-29T07:12:17.253Z,1.40
2022-11-29T07:14:44.487Z,1.50
2022-11-29T07:17:39.955Z,1.40
2022-11-29T07:20:42.569Z,1.53
2022-11-29T07:23:24.155Z,1.60
2022-11-29T07:26:29.640Z,1.57
2022-11-29T07:29:11.090Z,1.60
2022-11-29T07:32:11.627Z,1.77
2022-11-29T07:35:15.963Z,1.40
2022-11-29T07:38:04.659Z,1.70
2022-11-29T07:40:38.329Z,1.60
2022-11-29T07:43:23.200Z,1.93
2022-11-29T07:45:49.869Z,1.60
2022-11-29T07:48:16.618Z,1.37
2022-11-29T07:50:43.407Z,1.57
2022-11-29T07:53:17.023Z,1.70
2022-11-29T07:55:43.630Z,1.50
2022-11-29T07:58:12.692Z,1.43
2022-11-29T08:00:40.018Z,1.73
2022-11-29T08:03:06.680Z,1.50
2022-11-29T08:05:33.267Z,1.60
2022-11-29T08:07:59.889Z,1.80
2022-11-29T08:10:26.568Z,1.60
2022-11-29T08:12:53.151Z,1.90
2022-11-29T08:15:20.377Z,1.73
2022-11-29T08:17:47.019Z,1.73
2022-11-29T08:20:14.300Z,1.37
2022-11-29T08:22:40.973Z,1.90
2022-11-29T08:25:07.995Z,1.30
2022-11-29T08:27:35.144Z,1.83
2022-11-29T08:30:01.751Z,1.90
2022-11-29T08:32:28.726Z,1.60
2022-11-29T08:34:55.370Z,1.60
2022-11-29T08:37:22.017Z,1.80
2022-11-29T08:39:48.620Z,1.80
2022-11-29T08:42:15.216Z,1.83
2022-11-29T08:44:41.805Z,1.80
2022-11-29T08:47:28.879Z,1.47
2022-11-29T08:50:01.516Z,1.60
2022-11-29T08:52:51.004Z,1.70
2022-11-29T08:55:19.844Z,1.50
2022-11-29T08:57:47.272Z,1.80
2022-11-29T09:00:14.497Z,1.70
2022-11-29T09:02:41.180Z,1.50
2022-11-29T09:05:08.275Z,1.60
2022-11-29T09:07:34.952Z,1.70
2022-11-29T09:10:05.915Z,1.73
2022-11-29T09:12:32.735Z,1.83
2022-11-29T09:14:59.336Z,1.63
2022-11-29T09:17:25.958Z,2.00
2022-11-29T09:19:52.576Z,1.63
2022-11-29T09:22:19.184Z,1.60
2022-11-29T09:24:46.934Z,2.03
2022-11-29T09:27:13.763Z,1.40
2022-11-29T09:29:40.362Z,1.83
2022-11-29T09:32:07.025Z,1.70
2022-11-29T09:34:33.631Z,1.90
2022-11-29T09:37:00.348Z,1.60
2022-11-29T09:39:26.980Z,1.63
2022-11-29T09:42:41.095Z,1.63
2022-11-29T09:45:14.557Z,1.90
2022-11-29T09:47:53.629Z,1.53
2022-11-29T09:50:35.929Z,1.90
2022-11-29T09:53:14.437Z,1.80
2022-11-29T09:56:00.958Z,1.60
2022-11-29T09:58:29.999Z,1.90
2022-11-29T10:00:59.971Z,1.57
2022-11-29T10:03:34.280Z,1.80
2022-11-29T10:06:05.509Z,2.00
2022-11-29T10:08:44.257Z,1.77
2022-11-29T10:11:33.320Z,1.80
2022-11-29T10:14:16.547Z,1.50
2022-11-29T10:16:46.781Z,1.90
2022-11-29T10:19:28.297Z,1.83
2022-11-29T10:22:03.962Z,1.77
2022-11-29T10:24:30.668Z,1.80
2022-11-29T10:26:57.271Z,1.90
2022-11-29T10:29:23.871Z,1.57
2022-11-29T10:31:50.582Z,1.80
2022-11-29T10:34:22.690Z,1.77
2022-11-29T10:36:59.372Z,1.57
2022-11-29T10:39:45.256Z,1.70
2022-11-29T10:42:46.707Z,1.50
2022-11-29T10:45:29.093Z,1.70
2022-11-29T10:48:01.308Z,1.67
2022-11-29T10:50:29.283Z,1.70
2022-11-29T10:53:00.165Z,1.90
2022-11-29T10:55:26.882Z,1.80
2022-11-29T10:58:11.738Z,1.63
2022-11-29T11:00:45.770Z,1.90
2022-11-29T11:03:16.899Z,1.87
2022-11-29T11:05:54.435Z,1.90
2022-11-29T11:08:21.057Z,1.60
2022-11-29T11:10:55.407Z,1.53
2022-11-29T11:13:27.151Z,1.80
2022-11-29T11:16:17.947Z,1.87
2022-11-29T11:18:45.208Z,2.00
2022-11-29T11:21:13.294Z,1.90
2022-11-29T11:23:52.003Z,1.70
2022-11-29T11:26:18.605Z,1.60
2022-11-29T11:29:00.192Z,1.60
2022-11-29T11:31:34.777Z,1.70
2022-11-29T11:34:23.184Z,1.90
2022-11-29T11:36:49.766Z,1.77
2022-11-29T11:39:22.926Z,1.70
2022-11-29T11:42:08.439Z,1.77
2022-11-29T11:44:47.216Z,1.87
2022-11-29T11:47:15.988Z,1.90
2022-11-29T11:49:50.295Z,1.60
2022-11-29T11:52:42.804Z,1.40
2022-11-29T11:55:29.207Z,1.77
2022-11-29T11:58:09.904Z,1.80
2022-11-29T12:01:06.395Z,1.60
2022-11-29T12:03:36.219Z,1.90
2022-11-29T12:06:27.112Z,1.80
2022-11-29T12:09:16.441Z,1.53
2022-11-29T12:12:00.481Z,1.60
2022-11-29T12:14:36.929Z,1.87
2022-11-29T12:17:24.456Z,1.90
2022-11-29T12:20:04.440Z,1.70
2022-11-29T12:22:35.801Z,1.83
2022-11-29T12:25:04.252Z,1.90
2022-11-29T12:27:30.936Z,2.00
2022-11-29T12:29:57.548Z,1.60
2022-11-29T12:32:35.973Z,1.80
2022-11-29T12:35:08.310Z,1.87
2022-11-29T12:37:52.001Z,1.83
2022-11-29T12:40:31.532Z,1.80
2022-11-29T12:43:21.102Z,1.90
2022-11-29T12:45:52.556Z,1.67
2022-11-29T12:48:48.105Z,1.80
2022-11-29T12:51:49.728Z,1.90
2022-11-29T12:54:29.315Z,1.77
2022-11-29T12:57:18.867Z,1.80
2022-11-29T12:59:50.463Z,1.60
2022-11-29T13:02:40.085Z,2.20
2022-11-29T13:05:15.392Z,1.97
2022-11-29T13:08:19.795Z,1.77
2022-11-29T13:10:58.718Z,2.07
2022-11-29T13:13:38.985Z,1.70
2022-11-29T13:16:21.277Z,1.70
2022-11-29T13:19:04.503Z,1.90
2022-11-29T13:22:00.130Z,1.80
2022-11-29T13:24:42.560Z,1.60
2022-11-29T13:27:13.842Z,1.80
2022-11-29T13:29:40.415Z,1.57
2022-11-29T13:32:12.966Z,1.97
2022-11-29T13:34:42.824Z,1.53
2022-11-29T13:37:18.824Z,1.93
2022-11-29T13:40:25.815Z,2.13
2022-11-29T13:42:59.904Z,1.63
2022-11-29T13:46:04.203Z,1.90
2022-11-29T13:48:50.213Z,2.10
2022-11-29T13:51:31.286Z,1.90
2022-11-29T13:54:02.315Z,2.00
2022-11-29T13:56:33.423Z,1.63
2022-11-29T13:59:01.087Z,1.90
2022-11-29T14:01:27.858Z,1.90
2022-11-29T14:04:05.961Z,1.80
2022-11-29T14:06:37.204Z,1.90
2022-11-29T14:09:23.579Z,2.00
2022-11-29T14:11:56.635Z,1.80
2022-11-29T14:14:31.177Z,1.70
2022-11-29T14:17:02.333Z,1.80
2022-11-29T14:19:33.388Z,2.00
2022-11-29T14:22:05.354Z,1.80
2022-11-29T14:24:37.947Z,1.83
2022-11-29T14:27:12.107Z,1.80
2022-11-29T14:29:47.615Z,1.83
2022-11-29T14:32:46.426Z,1.87
2022-11-29T14:35:13.212Z,1.77
2022-11-29T14:38:01.081Z,1.90
2022-11-29T14:40:27.575Z,2.17
2022-11-29T14:42:54.170Z,1.90
2022-11-29T14:45:29.019Z,1.87
2022-11-29T14:47:55.760Z,1.83
2022-11-29T14:50:32.868Z,2.10
2022-11-29T14:52:59.516Z,2.00
2022-11-29T14:55:26.029Z,1.77
2022-11-29T14:58:01.826Z,1.90
2022-11-29T15:00:29.745Z,1.97
2022-11-29T15:03:20.533Z,2.07
2022-11-29T15:05:58.528Z,2.13
2022-11-29T15:08:35.559Z,2.10
2022-11-29T15:11:11.613Z,2.03
2022-11-29T15:13:41.454Z,1.80
2022-11-29T15:16:31.032Z,2.00
2022-11-29T15:19:34.555Z,2.00
2022-11-29T15:22:20.073Z,2.07
2022-11-29T15:24:51.452Z,2.30
2022-11-29T15:27:18.252Z,2.10
2022-11-29T15:29:48.183Z,1.80
2022-11-29T15:32:26.015Z,1.90
2022-11-29T15:34:56.089Z,2.20
2022-11-29T15:37:24.618Z,2.10
2022-11-29T15:40:02.500Z,1.90
2022-11-29T15:42:38.191Z,2.10
2022-11-29T15:45:27.754Z,2.13
2022-11-29T15:47:54.544Z,2.03
2022-11-29T15:50:29.583Z,2.10
2022-11-29T15:52:59.346Z,1.93
2022-11-29T15:55:26.011Z,2.03
2022-11-29T15:57:53.128Z,2.33
2022-11-29T16:00:21.565Z,2.27
2022-11-29T16:02:51.291Z,1.90
2022-11-29T16:05:28.974Z,1.90
2022-11-29T16:08:01.343Z,1.80
2022-11-29T16:10:36.062Z,1.63
2022-11-29T16:13:05.574Z,1.87
2022-11-29T16:15:33.841Z,2.27
2022-11-29T16:18:05.208Z,1.87
2022-11-29T16:20:31.894Z,2.20
2022-11-29T16:23:12.512Z,2.10
2022-11-29T16:25:50.384Z,1.93
2022-11-29T16:28:17.028Z,2.30
2022-11-29T16:30:43.619Z,1.93
2022-11-29T16:33:18.416Z,2.27
2022-11-29T16:35:45.000Z,2.10
2022-11-29T16:38:20.916Z,2.07
2022-11-29T16:41:01.528Z,2.10
2022-11-29T16:43:55.142Z,2.10
2022-11-29T16:46:21.772Z,2.07
2022-11-29T16:48:52.807Z,1.90
2022-11-29T16:51:24.764Z,2.07
2022-11-29T16:53:51.769Z,2.03
2022-11-29T16:56:20.950Z,2.20
2022-11-29T16:59:20.697Z,2.10
2022-11-29T17:01:37.716Z,1.90
2022-11-29T17:04:04.463Z,2.17
2022-11-29T17:06:31.099Z,1.97
2022-11-29T17:08:58.547Z,2.10
2022-11-29T17:11:25.467Z,2.37
2022-11-29T17:13:52.144Z,1.80
2022-11-29T17:16:22.960Z,2.07
2022-11-29T17:18:49.743Z,2.17
2022-11-29T17:21:27.336Z,2.00
2022-11-29T17:23:54.015Z,2.10
2022-11-29T17:26:20.875Z,2.20
2022-11-29T17:28:50.179Z,1.93
2022-11-29T17:31:21.701Z,2.30
2022-11-29T17:33:48.320Z,1.90
2022-11-29T17:36:16.597Z,2.00
2022-11-29T17:38:44.138Z,2.30
2022-11-29T17:41:12.584Z,2.10
2022-11-29T17:43:39.234Z,1.80
2022-11-29T17:46:09.636Z,2.07
2022-11-29T17:48:36.412Z,2.13
2022-11-29T17:51:02.979Z,2.30
2022-11-29T17:53:30.669Z,2.27
2022-11-29T17:56:05.832Z,2.20
2022-11-29T17:58:32.884Z,2.07
2022-11-29T18:01:13.381Z,2.17
2022-11-29T18:03:40.799Z,2.13
2022-11-29T18:06:08.352Z,2.07
2022-11-29T18:08:41.775Z,2.20
2022-11-29T18:11:11.089Z,2.47
2022-11-29T18:13:37.821Z,2.13
2022-11-29T18:16:09.188Z,2.30
2022-11-29T18:18:35.861Z,2.40
2022-11-29T18:21:03.091Z,2.13
2022-11-29T18:23:29.800Z,2.50
2022-11-29T18:26:00.771Z,2.37
2022-11-29T18:28:27.783Z,1.90
2022-11-29T18:30:56.442Z,2.00
2022-11-29T18:33:23.708Z,2.20
2022-11-29T18:35:50.326Z,2.10
2022-11-29T18:38:17.051Z,2.20
2022-11-29T18:40:45.493Z,2.33
2022-11-29T18:43:13.056Z,2.20
2022-11-29T18:45:39.768Z,2.20
2022-11-29T18:48:06.391Z,2.43
2022-11-29T18:50:33.019Z,2.10
2022-11-29T18:52:59.725Z,2.57
2022-11-29T18:55:26.368Z,2.13
2022-11-29T18:57:53.854Z,2.30
2022-11-29T19:00:20.757Z,2.00
2022-11-29T19:02:47.489Z,2.20
2022-11-29T19:05:14.277Z,2.37
2022-11-29T19:07:40.896Z,2.33
2022-11-29T19:10:08.041Z,2.50
2022-11-29T19:12:34.643Z,2.40
2022-11-29T19:15:01.236Z,2.40
2022-11-29T19:17:27.851Z,2.40
2022-11-29T19:19:54.461Z,2.47
2022-11-29T19:22:21.066Z,2.40
2022-11-29T19:24:47.895Z,2.10
2022-11-29T19:27:14.694Z,2.30
2022-11-29T19:29:41.360Z,2.00
2022-11-29T19:32:09.387Z,2.10
2022-11-29T19:34:35.978Z,2.20
2022-11-29T19:37:02.559Z,2.10
2022-11-29T19:39:29.267Z,2.30
2022-11-29T19:41:55.862Z,2.33
2022-11-29T19:44:27.939Z,2.00
2022-11-29T19:46:56.471Z,2.20
2022-11-29T19:49:23.067Z,2.33
2022-11-29T19:51:49.747Z,2.20
2022-11-29T19:54:16.344Z,2.20
2022-11-29T19:56:43.586Z,2.40
2022-11-29T19:59:10.192Z,2.47
2022-11-29T20:01:41.946Z,2.40
2022-11-29T20:04:10.649Z,2.23
2022-11-29T20:06:37.287Z,2.10
2022-11-29T20:09:04.023Z,2.27
2022-11-29T20:11:30.646Z,2.67
2022-11-29T20:13:59.016Z,2.17
2022-11-29T20:16:25.884Z,2.30
2022-11-29T20:18:52.958Z,2.37
2022-11-29T20:21:21.583Z,2.20
2022-11-29T20:23:48.213Z,2.43
2022-11-29T20:26:18.570Z,2.20
2022-11-29T20:28:45.432Z,2.63
2022-11-29T20:31:14.393Z,2.53
2022-11-29T20:33:41.997Z,2.30
2022-11-29T20:36:32.970Z,2.20
2022-11-29T20:39:11.573Z,2.47
2022-11-29T20:42:04.602Z,2.33
2022-11-29T20:44:58.280Z,2.30
2022-11-29T20:47:31.698Z,2.10
2022-11-29T20:49:58.373Z,2.37
2022-11-29T20:52:37.200Z,2.33
2022-11-29T20:55:04.471Z,2.30
2022-11-29T20:57:31.056Z,2.63
2022-11-29T20:59:57.641Z,2.60
2022-11-29T21:02:24.750Z,2.50
2022-11-29T21:04:51.581Z,2.10
2022-11-29T21:07:18.219Z,2.40
2022-11-29T21:09:45.248Z,2.50
2022-11-29T21:12:12.358Z,2.50
2022-11-29T21:14:39.137Z,2.27
2022-11-29T21:17:05.885Z,2.13
2022-11-29T21:19:32.586Z,2.40
2022-11-29T21:22:35.909Z,2.40
2022-11-29T21:25:23.318Z,2.30
2022-11-29T21:27:49.899Z,2.60
2022-11-29T21:30:21.226Z,2.60
2022-11-29T21:32:48.114Z,2.73
2022-11-29T21:35:15.071Z,2.83
2022-11-29T21:37:41.647Z,2.40
2022-11-29T21:40:09.473Z,2.50
2022-11-29T21:42:36.578Z,2.37
2022-11-29T21:45:04.180Z,2.60
2022-11-29T21:47:31.211Z,2.77
2022-11-29T21:49:57.815Z,2.47
2022-11-29T21:52:24.413Z,2.40
2022-11-29T21:54:51.009Z,2.23
2022-11-29T21:57:17.588Z,2.50
2022-11-29T21:59:44.185Z,2.57
2022-11-29T22:02:10.887Z,2.70
2022-11-29T22:04:37.608Z,2.63
2022-11-29T22:07:04.191Z,2.50
2022-11-29T22:09:30.784Z,2.40
2022-11-29T22:11:58.851Z,2.20
2022-11-29T22:14:25.442Z,2.63
2022-11-29T22:16:54.081Z,2.40
2022-11-29T22:19:28.471Z,2.70
2022-11-29T22:21:56.783Z,2.67
2022-11-29T22:24:24.544Z,2.50
2022-11-29T22:26:51.546Z,2.30
2022-11-29T22:29:18.168Z,2.27
2022-11-29T22:31:46.326Z,2.37
2022-11-29T22:34:12.961Z,2.20
2022-11-29T22:36:39.757Z,2.50
2022-11-29T22:39:06.608Z,2.37
2022-11-29T22:41:33.583Z,2.50
2022-11-29T22:44:00.175Z,2.30
2022-11-29T22:46:27.832Z,2.50
2022-11-29T22:48:55.846Z,2.50
2022-11-29T22:51:24.331Z,2.40
2022-11-29T22:53:55.148Z,2.33
2022-11-29T22:56:22.628Z,2.37
2022-11-29T22:58:49.243Z,2.30
2022-11-29T23:01:17.932Z,2.30
2022-11-29T23:03:46.053Z,2.50
2022-11-29T23:06:16.812Z,2.67
2022-11-29T23:08:43.885Z,2.50
2022-11-29T23:11:12.890Z,2.53
2022-11-29T23:13:40.329Z,2.73
2022-11-29T23:16:08.655Z,2.40
2022-11-29T23:18:35.476Z,2.97
2022-11-29T23:21:09.570Z,2.50
2022-11-29T23:23:36.372Z,2.80
2022-11-29T23:26:03.449Z,2.60
2022-11-29T23:28:30.031Z,2.53
2022-11-29T23:30:57.957Z,2.53
2022-11-29T23:33:24.660Z,2.73
2022-11-29T23:35:51.321Z,2.37
2022-11-29T23:38:18.023Z,2.60
2022-11-29T23:40:44.639Z,2.67
2022-11-29T23:43:11.226Z,2.40
2022-11-29T23:45:41.371Z,2.60
2022-11-29T23:48:08.115Z,2.80
2022-11-29T23:50:34.767Z,2.70
2022-11-29T23:53:01.351Z,2.73
2022-11-29T23:55:27.983Z,2.67
2022-11-29T23:57:54.568Z,2.77
